createdAt,value
2022-11-10T00:00:38.213Z,34.65
2022-11-10T00:03:20.001Z,34.52
2022-11-10T00:05:48.576Z,34.88
2022-11-10T00:08:16.680Z,34.47
2022-11-10T00:11:01.497Z,34.63
2022-11-10T00:13:31.643Z,34.08
2022-11-10T00:16:17.545Z,34.09
2022-11-10T00:18:47.101Z,34.67
2022-11-10T00:21:17.444Z,34.50
2022-11-10T00:23:47.891Z,34.35
2022-11-10T00:26:17.575Z,34.57
2022-11-10T00:28:46.229Z,34.57
2022-11-10T00:31:14.914Z,34.89
2022-11-10T00:33:44.684Z,34.50
2022-11-10T00:36:14.227Z,34.15
2022-11-10T00:38:42.544Z,34.69
2022-11-10T00:41:10.571Z,34.48
2022-11-10T00:43:38.654Z,35.02
2022-11-10T00:46:07.265Z,34.36
2022-11-10T00:48:35.386Z,33.86
2022-11-10T00:51:03.941Z,34.38
2022-11-10T00:53:33.755Z,34.38
2022-11-10T00:56:01.873Z,34.49
2022-11-10T00:58:30.169Z,34.57
2022-11-10T01:01:02.447Z,34.14
2022-11-10T01:03:30.491Z,34.57
2022-11-10T01:05:58.916Z,34.52
2022-11-10T01:08:26.991Z,34.36
2022-11-10T01:11:02.712Z,33.92
2022-11-10T01:13:31.274Z,34.46
2022-11-10T01:16:03.923Z,34.42
2022-11-10T01:18:32.280Z,34.41
2022-11-10T01:21:00.281Z,34.45
2022-11-10T01:23:28.452Z,34.40
2022-11-10T01:25:59.766Z,34.42
2022-11-10T01:28:28.081Z,34.56
2022-11-10T01:30:59.740Z,33.92
2022-11-10T01:33:28.080Z,34.67
2022-11-10T01:35:56.244Z,34.74
2022-11-10T01:38:24.745Z,34.69
2022-11-10T01:40:53.040Z,34.82
2022-11-10T01:43:22.818Z,34.40
2022-11-10T01:45:52.837Z,34.44
2022-11-10T01:48:30.510Z,33.94
2022-11-10T01:51:07.493Z,34.42
2022-11-10T01:53:37.744Z,34.30
2022-11-10T01:56:06.523Z,34.73
2022-11-10T01:58:40.422Z,34.47
2022-11-10T02:01:08.783Z,35.12
2022-11-10T02:03:41.677Z,34.49
2022-11-10T02:06:10.122Z,35.19
2022-11-10T02:08:38.814Z,35.35
2022-11-10T02:11:07.174Z,35.30
2022-11-10T02:13:37.044Z,34.72
2022-11-10T02:16:05.413Z,35.16
2022-11-10T02:18:33.814Z,34.69
2022-11-10T02:21:06.174Z,33.99
2022-11-10T02:23:46.330Z,33.79
2022-11-10T02:26:15.404Z,34.89
2022-11-10T02:28:43.905Z,35.31
2022-11-10T02:31:12.925Z,35.27
2022-11-10T02:33:41.663Z,35.16
2022-11-10T02:36:11.651Z,34.94
2022-11-10T02:38:40.132Z,35.49
2022-11-10T02:41:08.357Z,35.27
2022-11-10T02:43:37.886Z,35.36
2022-11-10T02:46:06.425Z,34.85
2022-11-10T02:48:34.750Z,35.10
2022-11-10T02:51:03.057Z,35.06
2022-11-10T02:53:32.621Z,34.66
2022-11-10T02:56:00.615Z,35.08
2022-11-10T02:58:29.132Z,35.05
2022-11-10T03:00:57.257Z,34.97
2022-11-10T03:03:25.593Z,34.91
2022-11-10T03:05:53.916Z,35.16
2022-11-10T03:08:22.170Z,34.93
2022-11-10T03:10:54.529Z,34.31
2022-11-10T03:13:23.513Z,34.70
2022-11-10T03:15:51.781Z,34.58
2022-11-10T03:18:20.222Z,34.91
2022-11-10T03:20:50.151Z,34.71
2022-11-10T03:23:18.635Z,34.62
2022-11-10T03:25:47.138Z,34.41
2022-11-10T03:28:16.856Z,34.16
2022-11-10T03:30:45.140Z,34.67
2022-11-10T03:33:13.112Z,34.43
2022-11-10T03:35:41.475Z,34.15
2022-11-10T03:38:09.553Z,34.20
2022-11-10T03:40:50.742Z,34.29
2022-11-10T03:43:27.285Z,33.67
2022-11-10T03:45:55.219Z,33.99
2022-11-10T03:48:23.562Z,33.86
2022-11-10T03:50:51.829Z,34.15
2022-11-10T03:53:20.257Z,34.24
2022-11-10T03:55:48.816Z,34.33
2022-11-10T03:58:16.819Z,33.91
2022-11-10T04:00:46.172Z,33.79
2022-11-10T04:03:14.790Z,33.95
2022-11-10T04:06:00.229Z,33.98
2022-11-10T04:08:45.935Z,33.98
2022-11-10T04:11:34.092Z,34.08
2022-11-10T04:14:20.326Z,34.06
2022-11-10T04:16:49.973Z,34.15
2022-11-10T04:19:18.339Z,33.96
2022-11-10T04:21:46.513Z,33.97
2022-11-10T04:24:15.166Z,34.28
2022-11-10T04:26:42.983Z,34.21
2022-11-10T04:29:12.419Z,33.98
2022-11-10T04:31:41.850Z,33.86
2022-11-10T04:34:13.608Z,33.91
2022-11-10T04:36:43.237Z,34.09
2022-11-10T04:39:12.001Z,33.94
2022-11-10T04:41:40.386Z,34.08
2022-11-10T04:44:08.760Z,34.04
2022-11-10T04:46:38.363Z,33.80
2022-11-10T04:49:07.549Z,34.11
2022-11-10T04:51:39.070Z,33.91
2022-11-10T04:54:08.506Z,33.92
2022-11-10T04:56:37.274Z,33.72
2022-11-10T04:59:05.396Z,33.99
2022-11-10T05:01:33.745Z,33.75
2022-11-10T05:04:02.103Z,33.91
2022-11-10T05:06:30.243Z,33.55
2022-11-10T05:09:00.007Z,33.29
2022-11-10T05:11:28.212Z,33.35
2022-11-10T05:13:56.298Z,33.47
2022-11-10T05:16:24.597Z,33.83
2022-11-10T05:18:54.303Z,33.52
2022-11-10T05:21:22.674Z,33.72
2022-11-10T05:23:50.731Z,34.02
2022-11-10T05:26:20.359Z,33.42
2022-11-10T05:28:48.357Z,33.92
2022-11-10T05:31:16.284Z,33.77
2022-11-10T05:33:44.710Z,33.99
2022-11-10T05:36:12.747Z,34.04
2022-11-10T05:38:43.651Z,33.95
2022-11-10T05:41:12.632Z,33.96
2022-11-10T05:43:42.005Z,33.61
2022-11-10T05:46:10.336Z,33.95
2022-11-10T05:48:38.337Z,33.71
2022-11-10T05:51:07.052Z,33.71
2022-11-10T05:53:35.150Z,33.67
2022-11-10T05:56:03.550Z,34.04
2022-11-10T05:58:31.691Z,33.87
2022-11-10T06:01:01.056Z,33.92
2022-11-10T06:03:29.573Z,34.11
2022-11-10T06:05:58.158Z,34.15
2022-11-10T06:08:26.767Z,34.41
2022-11-10T06:10:54.981Z,34.42
2022-11-10T06:13:23.451Z,34.30
2022-11-10T06:15:52.201Z,34.52
2022-11-10T06:18:21.746Z,34.65
2022-11-10T06:20:49.941Z,34.67
2022-11-10T06:23:18.283Z,35.02
2022-11-10T06:25:46.475Z,34.74
2022-11-10T06:28:14.967Z,35.05
2022-11-10T06:30:43.540Z,35.31
2022-11-10T06:33:11.862Z,35.66
2022-11-10T06:35:41.858Z,35.11
2022-11-10T06:38:12.081Z,35.14
2022-11-10T06:40:40.588Z,35.25
2022-11-10T06:43:08.636Z,35.53
2022-11-10T06:45:36.991Z,35.81
2022-11-10T06:48:06.991Z,35.61
2022-11-10T06:50:35.565Z,35.48
2022-11-10T06:53:05.195Z,35.62
2022-11-10T06:55:33.582Z,35.63
2022-11-10T06:58:02.391Z,35.72
2022-11-10T07:00:30.975Z,35.52
2022-11-10T07:03:03.293Z,35.32
2022-11-10T07:05:32.391Z,35.64
2022-11-10T07:08:05.100Z,35.63
2022-11-10T07:10:34.228Z,36.06
2022-11-10T07:13:04.246Z,35.76
2022-11-10T07:15:33.694Z,35.88
2022-11-10T07:18:02.641Z,35.92
2022-11-10T07:20:30.863Z,35.97
2022-11-10T07:23:00.431Z,35.85
2022-11-10T07:25:31.651Z,35.67
2022-11-10T07:28:01.598Z,35.68
2022-11-10T07:30:30.585Z,35.99
2022-11-10T07:33:00.387Z,35.98
2022-11-10T07:35:29.224Z,36.06
2022-11-10T07:37:58.159Z,36.31
2022-11-10T07:40:26.327Z,36.09
2022-11-10T07:42:56.102Z,35.78
2022-11-10T07:45:24.442Z,35.60
2022-11-10T07:47:53.363Z,35.16
2022-11-10T07:50:21.582Z,35.02
2022-11-10T07:52:49.928Z,35.43
2022-11-10T07:55:18.142Z,35.34
2022-11-10T07:57:46.507Z,35.14
2022-11-10T08:00:17.690Z,34.99
2022-11-10T08:02:46.016Z,34.99
2022-11-10T08:05:14.143Z,35.43
2022-11-10T08:07:42.556Z,35.39
2022-11-10T08:10:11.147Z,35.32
2022-11-10T08:12:39.615Z,35.39
2022-11-10T08:15:08.395Z,35.30
2022-11-10T08:17:38.166Z,34.81
2022-11-10T08:20:07.342Z,34.96
2022-11-10T08:22:35.741Z,34.59
2022-11-10T08:25:03.857Z,34.70
2022-11-10T08:27:32.322Z,34.20
2022-11-10T08:30:00.389Z,34.02
2022-11-10T08:32:28.843Z,34.01
2022-11-10T08:34:58.490Z,33.43
2022-11-10T08:37:27.987Z,33.46
2022-11-10T08:39:56.030Z,33.71
2022-11-10T08:42:24.603Z,33.52
2022-11-10T08:44:52.816Z,33.25
2022-11-10T08:47:21.194Z,33.24
2022-11-10T08:49:49.281Z,33.25
2022-11-10T08:52:19.045Z,32.98
2022-11-10T08:54:47.230Z,32.91
2022-11-10T08:57:15.603Z,33.09
2022-11-10T08:59:44.036Z,32.61
2022-11-10T09:02:12.481Z,32.64
2022-11-10T09:04:40.608Z,32.72
2022-11-10T09:07:09.101Z,32.88
2022-11-10T09:09:38.758Z,32.51
2022-11-10T09:12:07.368Z,32.92
2022-11-10T09:14:35.387Z,32.86
2022-11-10T09:17:03.800Z,33.06
2022-11-10T09:19:31.817Z,33.07
2022-11-10T09:22:00.335Z,33.29
2022-11-10T09:24:31.304Z,33.63
2022-11-10T09:27:01.467Z,33.63
2022-11-10T09:29:29.485Z,33.95
2022-11-10T09:31:57.916Z,34.00
2022-11-10T09:34:25.998Z,34.16
2022-11-10T09:36:55.111Z,34.02
2022-11-10T09:39:23.261Z,34.08
2022-11-10T09:41:51.606Z,34.01
2022-11-10T09:44:25.179Z,33.18
2022-11-10T09:46:55.593Z,33.54
2022-11-10T09:49:35.077Z,33.03
2022-11-10T09:52:04.027Z,33.75
2022-11-10T09:54:38.651Z,33.16
2022-11-10T09:57:08.945Z,33.51
2022-11-10T09:59:38.566Z,33.59
2022-11-10T10:02:14.610Z,33.15
2022-11-10T10:04:57.172Z,32.67
2022-11-10T10:07:28.810Z,32.82
2022-11-10T10:10:00.268Z,31.44
2022-11-10T10:12:35.026Z,31.15
2022-11-10T10:15:14.619Z,31.83
2022-11-10T10:17:50.769Z,32.09
2022-11-10T10:20:22.805Z,32.27
2022-11-10T10:23:00.354Z,31.91
2022-11-10T10:25:28.970Z,32.20
2022-11-10T10:28:01.641Z,31.46
2022-11-10T10:30:31.411Z,31.47
2022-11-10T10:33:15.448Z,30.56
2022-11-10T10:35:45.188Z,31.10
2022-11-10T10:38:20.204Z,30.83
2022-11-10T10:40:51.411Z,31.51
2022-11-10T10:43:19.720Z,31.71
2022-11-10T10:46:04.890Z,30.50
2022-11-10T10:48:33.225Z,31.40
2022-11-10T10:51:01.319Z,30.74
2022-11-10T10:53:29.716Z,30.60
2022-11-10T10:56:00.941Z,30.14
2022-11-10T10:58:30.611Z,29.66
2022-11-10T11:01:06.821Z,29.02
2022-11-10T11:03:43.495Z,28.36
2022-11-10T11:06:23.086Z,28.10
2022-11-10T11:08:59.425Z,28.04
2022-11-10T11:11:30.663Z,28.40
2022-11-10T11:14:15.630Z,28.09
2022-11-10T11:16:49.467Z,29.03
2022-11-10T11:19:18.382Z,30.06
2022-11-10T11:22:22.924Z,29.45
2022-11-10T11:24:55.464Z,29.44
2022-11-10T11:27:28.192Z,29.56
2022-11-10T11:30:04.533Z,29.16
2022-11-10T11:32:58.676Z,28.34
2022-11-10T11:35:32.720Z,28.15
2022-11-10T11:38:09.707Z,27.93
2022-11-10T11:40:44.586Z,28.18
2022-11-10T11:43:24.617Z,27.79
2022-11-10T11:45:56.871Z,27.48
2022-11-10T11:48:55.555Z,26.36
2022-11-10T11:51:28.898Z,26.97
2022-11-10T11:54:28.645Z,26.97
2022-11-10T11:57:01.523Z,27.59
2022-11-10T11:59:41.675Z,27.59
2022-11-10T12:02:35.481Z,27.71
2022-11-10T12:05:17.860Z,27.95
2022-11-10T12:07:52.043Z,28.72
2022-11-10T12:10:28.431Z,28.56
2022-11-10T12:13:17.240Z,28.06
2022-11-10T12:15:51.858Z,28.45
2022-11-10T12:18:30.017Z,28.48
2022-11-10T12:21:09.632Z,28.31
2022-11-10T12:23:43.717Z,28.42
2022-11-10T12:26:20.446Z,27.79
2022-11-10T12:28:51.119Z,27.56
2022-11-10T12:31:23.431Z,27.55
2022-11-10T12:33:55.277Z,27.56
2022-11-10T12:36:25.927Z,27.33
2022-11-10T12:39:00.734Z,27.30
2022-11-10T12:41:35.437Z,27.66
2022-11-10T12:44:08.805Z,27.31
2022-11-10T12:46:37.144Z,27.54
2022-11-10T12:49:12.668Z,27.44
2022-11-10T12:51:49.302Z,27.18
2022-11-10T12:54:21.837Z,27.64
2022-11-10T12:56:53.046Z,27.54
2022-11-10T12:59:32.627Z,27.07
2022-11-10T13:02:04.494Z,27.48
2022-11-10T13:04:33.171Z,26.98
2022-11-10T13:07:08.891Z,26.83
2022-11-10T13:09:42.814Z,26.96
2022-11-10T13:12:20.037Z,26.47
2022-11-10T13:14:48.979Z,27.60
2022-11-10T13:17:53.600Z,26.71
2022-11-10T13:20:52.094Z,26.69
2022-11-10T13:23:27.221Z,25.99
2022-11-10T13:26:00.623Z,26.21
2022-11-10T13:28:57.899Z,25.28
2022-11-10T13:31:53.762Z,24.78
2022-11-10T13:34:34.149Z,25.03
2022-11-10T13:37:02.970Z,25.91
2022-11-10T13:39:34.074Z,25.76
2022-11-10T13:42:19.161Z,25.90
2022-11-10T13:44:47.906Z,26.86
2022-11-10T13:47:45.891Z,26.28
2022-11-10T13:50:37.088Z,26.06
2022-11-10T13:53:19.351Z,26.07
2022-11-10T13:55:57.315Z,25.82
2022-11-10T13:58:27.041Z,26.55
2022-11-10T14:01:21.767Z,25.92
2022-11-10T14:03:55.300Z,26.06
2022-11-10T14:06:26.203Z,26.70
2022-11-10T14:08:57.315Z,26.38
2022-11-10T14:11:28.798Z,25.61
2022-11-10T14:14:02.252Z,26.25
2022-11-10T14:16:33.231Z,27.18
2022-11-10T14:19:07.294Z,26.12
2022-11-10T14:21:42.530Z,26.47
2022-11-10T14:24:18.306Z,26.52
2022-11-10T14:26:49.898Z,26.97
2022-11-10T14:29:28.920Z,25.89
2022-11-10T14:31:58.261Z,26.96
2022-11-10T14:34:26.451Z,26.97
2022-11-10T14:36:56.016Z,27.02
2022-11-10T14:39:29.338Z,26.66
2022-11-10T14:42:01.480Z,26.77
2022-11-10T14:44:31.855Z,27.00
2022-11-10T14:47:14.966Z,26.58
2022-11-10T14:49:43.964Z,27.35
2022-11-10T14:52:15.117Z,27.27
2022-11-10T14:54:45.822Z,26.91
2022-11-10T14:57:19.755Z,27.07
2022-11-10T14:59:48.075Z,27.68
2022-11-10T15:02:18.830Z,27.72
2022-11-10T15:04:48.131Z,27.68
2022-11-10T15:07:16.687Z,27.43
2022-11-10T15:10:04.328Z,26.63
2022-11-10T15:12:38.118Z,27.22
2022-11-10T15:15:22.909Z,26.59
2022-11-10T15:17:52.678Z,27.33
2022-11-10T15:20:38.325Z,26.93
2022-11-10T15:23:14.379Z,27.17
2022-11-10T15:25:42.752Z,27.81
2022-11-10T15:28:28.954Z,27.11
2022-11-10T15:30:58.546Z,27.61
2022-11-10T15:33:28.672Z,27.60
2022-11-10T15:35:57.624Z,27.93
2022-11-10T15:38:31.745Z,27.40
2022-11-10T15:41:12.447Z,27.46
2022-11-10T15:43:42.060Z,27.85
2022-11-10T15:46:18.290Z,27.63
2022-11-10T15:48:48.508Z,28.13
2022-11-10T15:51:24.485Z,28.14
2022-11-10T15:53:55.594Z,28.32
2022-11-10T15:56:25.488Z,28.44
2022-11-10T15:59:00.644Z,28.46
2022-11-10T16:01:30.355Z,28.58
2022-11-10T16:03:58.740Z,28.54
2022-11-10T16:06:27.589Z,28.55
2022-11-10T16:08:56.042Z,28.93
2022-11-10T16:11:24.825Z,28.60
2022-11-10T16:13:54.918Z,29.00
2022-11-10T16:16:24.157Z,29.39
2022-11-10T16:18:53.215Z,29.74
2022-11-10T16:21:23.150Z,29.69
2022-11-10T16:23:51.368Z,29.88
2022-11-10T16:26:21.356Z,29.88
2022-11-10T16:28:49.846Z,29.98
2022-11-10T16:31:21.995Z,30.06
2022-11-10T16:33:50.885Z,30.98
2022-11-10T16:36:24.301Z,30.79
2022-11-10T16:38:53.123Z,31.53
2022-11-10T16:41:21.479Z,31.89
2022-11-10T16:43:49.580Z,31.98
2022-11-10T16:46:21.533Z,32.07
2022-11-10T16:48:50.344Z,32.75
2022-11-10T16:51:19.036Z,32.87
2022-11-10T16:53:47.146Z,33.28
2022-11-10T16:56:16.149Z,33.14
2022-11-10T16:58:44.630Z,33.29
2022-11-10T17:01:19.969Z,32.92
2022-11-10T17:03:50.860Z,32.91
2022-11-10T17:06:19.748Z,33.34
2022-11-10T17:08:48.464Z,33.69
2022-11-10T17:11:17.024Z,33.88
2022-11-10T17:13:45.747Z,34.29
2022-11-10T17:16:21.252Z,33.74
2022-11-10T17:18:49.476Z,34.33
2022-11-10T17:21:19.439Z,34.44
2022-11-10T17:23:47.653Z,34.38
2022-11-10T17:26:17.693Z,34.39
2022-11-10T17:28:47.555Z,34.58
2022-11-10T17:31:15.993Z,34.73
2022-11-10T17:33:45.690Z,34.70
2022-11-10T17:36:15.517Z,34.70
2022-11-10T17:38:44.369Z,34.83
2022-11-10T17:41:16.693Z,34.41
2022-11-10T17:43:46.119Z,34.77
2022-11-10T17:46:14.656Z,34.89
2022-11-10T17:48:43.414Z,35.00
2022-11-10T17:51:16.528Z,34.34
2022-11-10T17:53:44.977Z,34.87
2022-11-10T17:56:13.236Z,34.85
2022-11-10T17:58:41.660Z,34.19
2022-11-10T18:01:15.107Z,34.69
2022-11-10T18:03:43.644Z,34.35
2022-11-10T18:06:15.678Z,33.60
2022-11-10T18:08:44.760Z,34.32
2022-11-10T18:11:15.413Z,33.86
2022-11-10T18:13:43.716Z,34.15
2022-11-10T18:16:12.869Z,34.13
2022-11-10T18:18:41.327Z,34.34
2022-11-10T18:21:10.893Z,34.52
2022-11-10T18:23:40.507Z,34.09
2022-11-10T18:26:11.727Z,34.49
2022-11-10T18:28:42.194Z,34.21
2022-11-10T18:31:12.578Z,34.31
2022-11-10T18:33:41.272Z,34.58
2022-11-10T18:36:11.288Z,34.73
2022-11-10T18:38:40.802Z,34.49
2022-11-10T18:41:26.590Z,34.65
2022-11-10T18:43:54.832Z,35.02
2022-11-10T18:46:23.177Z,34.61
2022-11-10T18:48:51.976Z,34.73
2022-11-10T18:51:20.325Z,34.54
2022-11-10T18:53:49.912Z,34.33
2022-11-10T18:56:18.325Z,34.71
2022-11-10T18:58:53.700Z,34.64
2022-11-10T19:01:25.385Z,34.64
2022-11-10T19:03:53.760Z,34.83
2022-11-10T19:06:22.266Z,34.79
2022-11-10T19:08:51.834Z,34.58
2022-11-10T19:11:20.939Z,34.45
2022-11-10T19:13:50.280Z,34.80
2022-11-10T19:16:19.725Z,34.39
2022-11-10T19:18:47.840Z,34.79
2022-11-10T19:21:18.425Z,34.64
2022-11-10T19:23:46.569Z,34.76
2022-11-10T19:26:22.458Z,34.34
2022-11-10T19:28:53.376Z,34.76
2022-11-10T19:31:22.979Z,34.62
2022-11-10T19:33:52.841Z,34.39
2022-11-10T19:36:22.927Z,34.72
2022-11-10T19:38:51.205Z,34.71
2022-11-10T19:41:22.870Z,34.53
2022-11-10T19:43:50.677Z,33.14
2022-11-10T19:46:23.665Z,34.26
2022-11-10T19:48:52.027Z,34.67
2022-11-10T19:51:20.420Z,34.73
2022-11-10T19:53:51.067Z,34.63
2022-11-10T19:56:21.544Z,34.54
2022-11-10T19:58:49.961Z,34.55
2022-11-10T20:01:19.708Z,34.46
2022-11-10T20:03:48.017Z,34.53
2022-11-10T20:06:18.213Z,34.51
2022-11-10T20:08:46.348Z,34.91
2022-11-10T20:11:16.245Z,34.19
2022-11-10T20:13:45.680Z,34.47
2022-11-10T20:16:13.723Z,34.70
2022-11-10T20:18:42.437Z,34.17
2022-11-10T20:21:14.685Z,33.87
2022-11-10T20:23:43.431Z,34.07
2022-11-10T20:26:14.215Z,34.10
2022-11-10T20:28:43.033Z,34.26
2022-11-10T20:31:14.283Z,34.02
2022-11-10T20:33:42.626Z,34.63
2022-11-10T20:36:19.005Z,34.11
2022-11-10T20:38:49.138Z,34.69
2022-11-10T20:41:19.466Z,34.45
2022-11-10T20:43:48.442Z,34.15
2022-11-10T20:46:40.349Z,33.90
2022-11-10T20:49:07.873Z,34.08
2022-11-10T20:51:35.893Z,33.95
2022-11-10T20:54:04.391Z,34.13
2022-11-10T20:56:32.417Z,33.83
2022-11-10T20:59:00.711Z,33.98
2022-11-10T21:01:30.210Z,33.88
2022-11-10T21:03:58.971Z,33.93
2022-11-10T21:06:27.094Z,33.78
2022-11-10T21:08:57.036Z,33.96
2022-11-10T21:11:38.958Z,34.35
2022-11-10T21:14:07.321Z,34.40
2022-11-10T21:16:36.749Z,34.14
2022-11-10T21:19:05.141Z,34.28
2022-11-10T21:21:35.162Z,34.50
2022-11-10T21:24:03.281Z,34.69
2022-11-10T21:26:32.079Z,34.81
2022-11-10T21:29:00.249Z,34.77
2022-11-10T21:31:30.127Z,34.80
2022-11-10T21:33:59.987Z,34.26
2022-11-10T21:36:29.724Z,34.48
2022-11-10T21:38:58.615Z,34.60
2022-11-10T21:41:27.437Z,34.56
2022-11-10T21:43:55.599Z,34.76
2022-11-10T21:46:24.147Z,34.73
2022-11-10T21:48:52.347Z,34.57
2022-11-10T21:51:22.194Z,34.67
2022-11-10T21:53:50.392Z,34.78
2022-11-10T21:56:19.025Z,34.91
2022-11-10T21:58:47.150Z,34.93
2022-11-10T22:01:18.388Z,34.63
2022-11-10T22:03:46.981Z,34.78
2022-11-10T22:06:16.689Z,34.48
2022-11-10T22:08:47.692Z,33.96
2022-11-10T22:11:38.074Z,34.03
2022-11-10T22:14:29.939Z,33.89
2022-11-10T22:17:15.748Z,34.23
2022-11-10T22:19:44.725Z,34.35
2022-11-10T22:22:14.378Z,34.49
2022-11-10T22:24:44.088Z,34.04
2022-11-10T22:27:12.217Z,34.27
2022-11-10T22:29:40.606Z,34.39
2022-11-10T22:32:08.820Z,34.18
2022-11-10T22:34:37.222Z,34.29
2022-11-10T22:37:05.573Z,34.53
2022-11-10T22:39:47.829Z,34.56
2022-11-10T22:42:34.918Z,34.68
2022-11-10T22:45:03.056Z,34.67
2022-11-10T22:47:51.480Z,34.99
2022-11-10T22:50:19.709Z,34.51
2022-11-10T22:52:48.007Z,34.56
2022-11-10T22:55:16.413Z,34.65
2022-11-10T22:57:46.146Z,34.49
2022-11-10T23:00:16.040Z,34.96
2022-11-10T23:02:44.785Z,34.93
2022-11-10T23:05:13.223Z,34.64
2022-11-10T23:07:41.583Z,35.11
2022-11-10T23:10:09.989Z,35.19
2022-11-10T23:12:38.195Z,34.95
2022-11-10T23:15:09.073Z,34.99
2022-11-10T23:17:37.131Z,34.96
2022-11-10T23:20:06.113Z,34.82
2022-11-10T23:22:34.348Z,34.90
2022-11-10T23:25:02.675Z,35.12
2022-11-10T23:27:30.907Z,34.71
2022-11-10T23:29:59.284Z,34.77
2022-11-10T23:32:28.974Z,34.50
2022-11-10T23:34:57.446Z,35.06
2022-11-10T23:37:25.482Z,34.86
2022-11-10T23:39:53.750Z,35.06
2022-11-10T23:42:22.274Z,35.13
2022-11-10T23:44:52.724Z,35.12
2022-11-10T23:47:21.176Z,34.84
2022-11-10T23:49:50.539Z,34.99
2022-11-10T23:52:18.857Z,35.12
2022-11-10T23:54:46.887Z,35.15
2022-11-10T23:57:15.339Z,35.18
2022-11-10T23:59:43.452Z,35.15
